sensor_id;sensor_type;location;lat;lon;timestamp;temperature;humidity
52725;DHT22;38621;52.830;6.914;2023-03-23T00:01:13;11.10;99.90
52725;DHT22;38621;52.830;6.914;2023-03-23T00:03:40;11.10;99.90
52725;DHT22;38621;52.830;6.914;2023-03-23T00:06:07;11.10;99.90
52725;DHT22;38621;52.830;6.914;2023-03-23T00:08:35;11.10;99.90
52725;DHT22;38621;52.830;6.914;2023-03-23T00:11:11;11.10;99.90
52725;DHT22;38621;52.830;6.914;2023-03-23T00:13:40;11.10;99.90
52725;DHT22;38621;52.830;6.914;2023-03-23T00:16:06;11.10;99.90
52725;DHT22;38621;52.830;6.914;2023-03-23T00:18:47;11.10;99.90
52725;DHT22;38621;52.830;6.914;2023-03-23T00:21:15;11.10;99.90
52725;DHT22;38621;52.830;6.914;2023-03-23T00:23:41;11.10;99.90
52725;DHT22;38621;52.830;6.914;2023-03-23T00:26:10;11.10;99.90
52725;DHT22;38621;52.830;6.914;2023-03-23T00:28:37;11.10;99.90
52725;DHT22;38621;52.830;6.914;2023-03-23T00:31:06;11.10;99.90
52725;DHT22;38621;52.830;6.914;2023-03-23T00:33:34;11.10;99.90
52725;DHT22;38621;52.830;6.914;2023-03-23T00:36:13;11.10;99.90
52725;DHT22;38621;52.830;6.914;2023-03-23T00:38:39;11.10;99.90
52725;DHT22;38621;52.830;6.914;2023-03-23T00:41:06;11.10;99.90
52725;DHT22;38621;52.830;6.914;2023-03-23T00:43:33;11.10;99.90
52725;DHT22;38621;52.830;6.914;2023-03-23T00:46:02;11.10;99.90
52725;DHT22;38621;52.830;6.914;2023-03-23T00:48:34;11.10;99.90
52725;DHT22;38621;52.830;6.914;2023-03-23T00:51:01;11.10;99.90
52725;DHT22;38621;52.830;6.914;2023-03-23T00:53:32;11.10;99.90
52725;DHT22;38621;52.830;6.914;2023-03-23T00:55:57;11.10;99.90
52725;DHT22;38621;52.830;6.914;2023-03-23T00:58:23;11.10;99.90
52725;DHT22;38621;52.830;6.914;2023-03-23T01:00:49;11.10;99.90
52725;DHT22;38621;52.830;6.914;2023-03-23T01:03:14;11.10;99.90
52725;DHT22;38621;52.830;6.914;2023-03-23T01:05:44;11.10;99.90
52725;DHT22;38621;52.830;6.914;2023-03-23T01:08:13;11.20;99.90
52725;DHT22;38621;52.830;6.914;2023-03-23T01:10:39;11.20;99.90
52725;DHT22;38621;52.830;6.914;2023-03-23T01:13:06;11.20;99.90
52725;DHT22;38621;52.830;6.914;2023-03-23T01:15:32;11.20;99.90
52725;DHT22;38621;52.830;6.914;2023-03-23T01:17:58;11.20;99.90
52725;DHT22;38621;52.830;6.914;2023-03-23T01:20:25;11.20;99.90
52725;DHT22;38621;52.830;6.914;2023-03-23T01:22:52;11.20;99.90
52725;DHT22;38621;52.830;6.914;2023-03-23T01:25:19;11.30;99.90
52725;DHT22;38621;52.830;6.914;2023-03-23T01:27:44;11.20;99.90
52725;DHT22;38621;52.830;6.914;2023-03-23T01:30:11;11.20;99.90
52725;DHT22;38621;52.830;6.914;2023-03-23T01:32:38;11.20;99.90
52725;DHT22;38621;52.830;6.914;2023-03-23T01:35:04;11.20;99.90
52725;DHT22;38621;52.830;6.914;2023-03-23T01:37:30;11.20;99.90
52725;DHT22;38621;52.830;6.914;2023-03-23T01:39:57;11.20;99.90
52725;DHT22;38621;52.830;6.914;2023-03-23T01:42:30;11.20;99.90
52725;DHT22;38621;52.830;6.914;2023-03-23T01:45:26;11.20;99.90
52725;DHT22;38621;52.830;6.914;2023-03-23T01:50:28;11.20;99.90
52725;DHT22;38621;52.830;6.914;2023-03-23T01:52:57;11.20;99.90
52725;DHT22;38621;52.830;6.914;2023-03-23T01:55:27;11.20;99.90
52725;DHT22;38621;52.830;6.914;2023-03-23T01:57:54;11.20;99.90
52725;DHT22;38621;52.830;6.914;2023-03-23T02:00:21;11.20;99.90
52725;DHT22;38621;52.830;6.914;2023-03-23T02:02:48;11.20;99.90
52725;DHT22;38621;52.830;6.914;2023-03-23T02:05:31;11.20;99.90
52725;DHT22;38621;52.830;6.914;2023-03-23T02:07:59;11.20;99.90
52725;DHT22;38621;52.830;6.914;2023-03-23T02:10:32;11.20;99.90
52725;DHT22;38621;52.830;6.914;2023-03-23T02:13:00;11.20;99.90
52725;DHT22;38621;52.830;6.914;2023-03-23T02:16:18;11.30;99.90
52725;DHT22;38621;52.830;6.914;2023-03-23T02:27:16;11.40;99.90
52725;DHT22;38621;52.830;6.914;2023-03-23T02:34:53;11.30;99.90
52725;DHT22;38621;52.830;6.914;2023-03-23T02:37:29;11.30;99.90
52725;DHT22;38621;52.830;6.914;2023-03-23T02:40:07;11.30;99.90
52725;DHT22;38621;52.830;6.914;2023-03-23T02:42:39;11.20;99.90
52725;DHT22;38621;52.830;6.914;2023-03-23T02:45:09;11.20;99.90
52725;DHT22;38621;52.830;6.914;2023-03-23T02:47:37;11.20;99.90
52725;DHT22;38621;52.830;6.914;2023-03-23T02:50:05;11.20;99.90
52725;DHT22;38621;52.830;6.914;2023-03-23T02:52:34;11.20;99.90
52725;DHT22;38621;52.830;6.914;2023-03-23T02:55:02;11.20;99.90
52725;DHT22;38621;52.830;6.914;2023-03-23T02:57:28;11.20;99.90
52725;DHT22;38621;52.830;6.914;2023-03-23T02:59:54;11.20;99.90
52725;DHT22;38621;52.830;6.914;2023-03-23T03:02:26;11.30;99.90
52725;DHT22;38621;52.830;6.914;2023-03-23T03:05:14;11.30;99.90
52725;DHT22;38621;52.830;6.914;2023-03-23T03:10:25;11.20;99.90
52725;DHT22;38621;52.830;6.914;2023-03-23T03:13:44;11.30;99.90
52725;DHT22;38621;52.830;6.914;2023-03-23T03:16:16;11.20;99.90
52725;DHT22;38621;52.830;6.914;2023-03-23T03:21:26;11.30;99.90
52725;DHT22;38621;52.830;6.914;2023-03-23T03:23:55;11.30;99.90
52725;DHT22;38621;52.830;6.914;2023-03-23T03:26:22;11.30;99.90
52725;DHT22;38621;52.830;6.914;2023-03-23T03:28:52;11.30;99.90
52725;DHT22;38621;52.830;6.914;2023-03-23T03:31:21;11.30;99.90
52725;DHT22;38621;52.830;6.914;2023-03-23T03:33:47;11.30;99.90
52725;DHT22;38621;52.830;6.914;2023-03-23T03:36:20;11.30;99.90
52725;DHT22;38621;52.830;6.914;2023-03-23T03:38:49;11.30;99.90
52725;DHT22;38621;52.830;6.914;2023-03-23T03:41:16;11.30;99.90
52725;DHT22;38621;52.830;6.914;2023-03-23T03:43:43;11.40;99.90
52725;DHT22;38621;52.830;6.914;2023-03-23T03:46:08;11.40;99.90
52725;DHT22;38621;52.830;6.914;2023-03-23T03:48:34;11.50;99.90
52725;DHT22;38621;52.830;6.914;2023-03-23T03:51:00;11.50;99.90
52725;DHT22;38621;52.830;6.914;2023-03-23T03:53:27;11.50;99.90
52725;DHT22;38621;52.830;6.914;2023-03-23T03:55:53;11.50;99.90
52725;DHT22;38621;52.830;6.914;2023-03-23T03:58:22;11.60;99.90
52725;DHT22;38621;52.830;6.914;2023-03-23T04:00:48;11.60;99.90
52725;DHT22;38621;52.830;6.914;2023-03-23T04:03:15;11.60;99.90
52725;DHT22;38621;52.830;6.914;2023-03-23T04:05:42;11.60;99.90
52725;DHT22;38621;52.830;6.914;2023-03-23T04:08:10;11.60;99.90
52725;DHT22;38621;52.830;6.914;2023-03-23T04:10:37;11.60;99.90
52725;DHT22;38621;52.830;6.914;2023-03-23T04:13:03;11.70;99.90
52725;DHT22;38621;52.830;6.914;2023-03-23T04:15:30;11.70;99.90
52725;DHT22;38621;52.830;6.914;2023-03-23T04:17:56;11.70;99.90
52725;DHT22;38621;52.830;6.914;2023-03-23T04:20:23;11.70;99.90
52725;DHT22;38621;52.830;6.914;2023-03-23T04:22:49;11.60;99.90
52725;DHT22;38621;52.830;6.914;2023-03-23T04:25:16;11.60;99.90
52725;DHT22;38621;52.830;6.914;2023-03-23T04:27:43;11.50;99.90
52725;DHT22;38621;52.830;6.914;2023-03-23T04:30:13;11.50;99.90
52725;DHT22;38621;52.830;6.914;2023-03-23T04:32:40;11.50;99.90
52725;DHT22;38621;52.830;6.914;2023-03-23T04:35:13;11.50;99.90
52725;DHT22;38621;52.830;6.914;2023-03-23T04:37:40;11.60;99.90
52725;DHT22;38621;52.830;6.914;2023-03-23T04:40:07;11.60;99.90
52725;DHT22;38621;52.830;6.914;2023-03-23T04:42:38;11.60;99.90
52725;DHT22;38621;52.830;6.914;2023-03-23T04:45:06;11.60;99.90
52725;DHT22;38621;52.830;6.914;2023-03-23T04:47:34;11.60;99.90
52725;DHT22;38621;52.830;6.914;2023-03-23T04:50:10;11.60;99.90
52725;DHT22;38621;52.830;6.914;2023-03-23T04:52:38;11.60;99.90
52725;DHT22;38621;52.830;6.914;2023-03-23T04:55:08;11.60;99.90
52725;DHT22;38621;52.830;6.914;2023-03-23T04:57:35;11.60;99.90
52725;DHT22;38621;52.830;6.914;2023-03-23T05:00:02;11.60;99.90
52725;DHT22;38621;52.830;6.914;2023-03-23T05:02:35;11.70;99.90
52725;DHT22;38621;52.830;6.914;2023-03-23T05:05:01;11.60;99.90
52725;DHT22;38621;52.830;6.914;2023-03-23T05:07:26;11.70;99.90
52725;DHT22;38621;52.830;6.914;2023-03-23T05:09:53;11.70;99.90
52725;DHT22;38621;52.830;6.914;2023-03-23T05:12:19;11.70;99.90
52725;DHT22;38621;52.830;6.914;2023-03-23T05:14:44;11.70;99.90
52725;DHT22;38621;52.830;6.914;2023-03-23T05:17:10;11.70;99.90
52725;DHT22;38621;52.830;6.914;2023-03-23T05:19:38;11.50;99.90
52725;DHT22;38621;52.830;6.914;2023-03-23T05:22:03;11.40;99.90
52725;DHT22;38621;52.830;6.914;2023-03-23T05:24:30;11.40;99.90
52725;DHT22;38621;52.830;6.914;2023-03-23T05:27:01;11.40;99.90
52725;DHT22;38621;52.830;6.914;2023-03-23T05:29:27;11.30;99.90
52725;DHT22;38621;52.830;6.914;2023-03-23T05:31:56;10.80;99.90
52725;DHT22;38621;52.830;6.914;2023-03-23T05:34:25;10.50;99.90
52725;DHT22;38621;52.830;6.914;2023-03-23T05:36:52;10.10;99.90
52725;DHT22;38621;52.830;6.914;2023-03-23T05:39:19;9.70;99.90
52725;DHT22;38621;52.830;6.914;2023-03-23T05:41:44;9.40;99.90
52725;DHT22;38621;52.830;6.914;2023-03-23T05:44:12;9.30;99.90
52725;DHT22;38621;52.830;6.914;2023-03-23T05:46:39;9.30;99.90
52725;DHT22;38621;52.830;6.914;2023-03-23T05:49:05;9.20;99.90
52725;DHT22;38621;52.830;6.914;2023-03-23T05:51:31;9.30;99.90
52725;DHT22;38621;52.830;6.914;2023-03-23T05:53:57;9.40;99.90
52725;DHT22;38621;52.830;6.914;2023-03-23T05:56:23;9.40;99.90
52725;DHT22;38621;52.830;6.914;2023-03-23T05:58:49;9.50;99.90
52725;DHT22;38621;52.830;6.914;2023-03-23T06:01:15;9.50;99.90
52725;DHT22;38621;52.830;6.914;2023-03-23T06:03:41;9.60;99.90
52725;DHT22;38621;52.830;6.914;2023-03-23T06:06:10;9.70;99.90
52725;DHT22;38621;52.830;6.914;2023-03-23T06:08:37;9.90;99.90
52725;DHT22;38621;52.830;6.914;2023-03-23T06:11:04;9.90;99.90
52725;DHT22;38621;52.830;6.914;2023-03-23T06:13:29;9.90;99.90
52725;DHT22;38621;52.830;6.914;2023-03-23T06:15:55;9.90;99.90
52725;DHT22;38621;52.830;6.914;2023-03-23T06:18:24;9.90;99.90
52725;DHT22;38621;52.830;6.914;2023-03-23T06:20:50;9.80;99.90
52725;DHT22;38621;52.830;6.914;2023-03-23T06:23:17;9.90;99.90
52725;DHT22;38621;52.830;6.914;2023-03-23T06:25:43;9.80;99.90
52725;DHT22;38621;52.830;6.914;2023-03-23T06:28:10;9.80;99.90
52725;DHT22;38621;52.830;6.914;2023-03-23T06:30:36;9.80;99.90
52725;DHT22;38621;52.830;6.914;2023-03-23T06:33:03;9.70;99.90
52725;DHT22;38621;52.830;6.914;2023-03-23T06:35:31;9.70;99.90
52725;DHT22;38621;52.830;6.914;2023-03-23T06:37:57;9.70;99.90
52725;DHT22;38621;52.830;6.914;2023-03-23T06:40:27;9.80;99.90
52725;DHT22;38621;52.830;6.914;2023-03-23T06:42:56;9.70;99.90
52725;DHT22;38621;52.830;6.914;2023-03-23T06:45:21;9.80;99.90
52725;DHT22;38621;52.830;6.914;2023-03-23T06:47:47;9.80;99.90
52725;DHT22;38621;52.830;6.914;2023-03-23T06:50:16;9.80;99.90
52725;DHT22;38621;52.830;6.914;2023-03-23T06:52:46;9.80;99.90
52725;DHT22;38621;52.830;6.914;2023-03-23T06:55:13;9.90;99.90
52725;DHT22;38621;52.830;6.914;2023-03-23T06:57:39;9.90;99.90
52725;DHT22;38621;52.830;6.914;2023-03-23T07:00:06;10.00;99.90
52725;DHT22;38621;52.830;6.914;2023-03-23T07:02:34;10.00;99.90
52725;DHT22;38621;52.830;6.914;2023-03-23T07:05:01;10.00;99.90
52725;DHT22;38621;52.830;6.914;2023-03-23T07:07:30;10.10;99.90
52725;DHT22;38621;52.830;6.914;2023-03-23T07:09:55;10.10;99.90
52725;DHT22;38621;52.830;6.914;2023-03-23T07:12:21;10.20;99.90
52725;DHT22;38621;52.830;6.914;2023-03-23T07:14:48;10.20;99.90
52725;DHT22;38621;52.830;6.914;2023-03-23T07:17:13;10.20;99.90
52725;DHT22;38621;52.830;6.914;2023-03-23T07:19:39;10.20;99.90
52725;DHT22;38621;52.830;6.914;2023-03-23T07:22:06;10.30;99.90
52725;DHT22;38621;52.830;6.914;2023-03-23T07:24:33;10.30;99.90
52725;DHT22;38621;52.830;6.914;2023-03-23T07:26:59;10.40;99.90
52725;DHT22;38621;52.830;6.914;2023-03-23T07:29:25;10.40;99.90
52725;DHT22;38621;52.830;6.914;2023-03-23T07:31:51;10.40;99.90
52725;DHT22;38621;52.830;6.914;2023-03-23T07:34:18;10.50;99.90
52725;DHT22;38621;52.830;6.914;2023-03-23T07:36:45;10.50;99.90
52725;DHT22;38621;52.830;6.914;2023-03-23T07:39:11;10.50;99.90
52725;DHT22;38621;52.830;6.914;2023-03-23T07:41:38;10.60;99.90
52725;DHT22;38621;52.830;6.914;2023-03-23T07:44:04;10.60;99.90
52725;DHT22;38621;52.830;6.914;2023-03-23T07:46:31;10.60;99.90
52725;DHT22;38621;52.830;6.914;2023-03-23T07:48:56;10.70;99.90
52725;DHT22;38621;52.830;6.914;2023-03-23T07:51:23;10.80;99.90
52725;DHT22;38621;52.830;6.914;2023-03-23T07:53:50;10.90;99.90
52725;DHT22;38621;52.830;6.914;2023-03-23T07:56:17;11.00;99.90
52725;DHT22;38621;52.830;6.914;2023-03-23T07:58:48;11.10;99.90
52725;DHT22;38621;52.830;6.914;2023-03-23T08:01:14;11.10;99.90
52725;DHT22;38621;52.830;6.914;2023-03-23T08:03:39;11.10;99.90
52725;DHT22;38621;52.830;6.914;2023-03-23T08:06:05;11.20;99.90
52725;DHT22;38621;52.830;6.914;2023-03-23T08:08:31;11.20;99.90
52725;DHT22;38621;52.830;6.914;2023-03-23T08:10:58;11.30;99.90
52725;DHT22;38621;52.830;6.914;2023-03-23T08:13:24;11.30;99.90
52725;DHT22;38621;52.830;6.914;2023-03-23T08:15:50;11.30;99.90
52725;DHT22;38621;52.830;6.914;2023-03-23T08:18:17;11.40;99.90
52725;DHT22;38621;52.830;6.914;2023-03-23T08:20:43;11.50;99.90
52725;DHT22;38621;52.830;6.914;2023-03-23T08:23:10;11.50;99.90
52725;DHT22;38621;52.830;6.914;2023-03-23T08:25:36;11.50;99.90
52725;DHT22;38621;52.830;6.914;2023-03-23T08:28:03;11.50;99.90
52725;DHT22;38621;52.830;6.914;2023-03-23T08:30:30;11.50;99.90
52725;DHT22;38621;52.830;6.914;2023-03-23T08:32:58;11.50;99.90
52725;DHT22;38621;52.830;6.914;2023-03-23T08:35:26;11.60;99.90
52725;DHT22;38621;52.830;6.914;2023-03-23T08:37:51;11.60;99.90
52725;DHT22;38621;52.830;6.914;2023-03-23T08:40:20;11.60;99.90
52725;DHT22;38621;52.830;6.914;2023-03-23T08:42:47;11.60;99.90
52725;DHT22;38621;52.830;6.914;2023-03-23T08:45:17;11.60;99.90
52725;DHT22;38621;52.830;6.914;2023-03-23T08:47:43;11.60;99.90
52725;DHT22;38621;52.830;6.914;2023-03-23T08:50:13;11.60;99.90
52725;DHT22;38621;52.830;6.914;2023-03-23T08:52:39;11.60;99.90
52725;DHT22;38621;52.830;6.914;2023-03-23T08:55:05;11.50;99.90
52725;DHT22;38621;52.830;6.914;2023-03-23T08:57:34;11.50;99.90
52725;DHT22;38621;52.830;6.914;2023-03-23T09:00:02;11.50;99.90
52725;DHT22;38621;52.830;6.914;2023-03-23T09:02:39;11.50;99.90
52725;DHT22;38621;52.830;6.914;2023-03-23T09:05:04;11.50;99.90
52725;DHT22;38621;52.830;6.914;2023-03-23T09:07:30;11.50;99.90
52725;DHT22;38621;52.830;6.914;2023-03-23T09:09:56;11.60;99.90
52725;DHT22;38621;52.830;6.914;2023-03-23T09:12:22;11.60;99.90
52725;DHT22;38621;52.830;6.914;2023-03-23T09:14:48;11.60;99.90
52725;DHT22;38621;52.830;6.914;2023-03-23T09:17:14;11.70;99.90
52725;DHT22;38621;52.830;6.914;2023-03-23T09:19:40;11.70;99.90
52725;DHT22;38621;52.830;6.914;2023-03-23T09:22:06;11.70;99.90
52725;DHT22;38621;52.830;6.914;2023-03-23T09:24:33;11.70;99.90
52725;DHT22;38621;52.830;6.914;2023-03-23T09:27:00;11.70;99.90
52725;DHT22;38621;52.830;6.914;2023-03-23T09:29:26;11.80;99.90
52725;DHT22;38621;52.830;6.914;2023-03-23T09:31:53;11.70;99.90
52725;DHT22;38621;52.830;6.914;2023-03-23T09:34:19;11.80;99.90
52725;DHT22;38621;52.830;6.914;2023-03-23T09:36:46;11.70;99.90
52725;DHT22;38621;52.830;6.914;2023-03-23T09:39:12;11.70;99.90
52725;DHT22;38621;52.830;6.914;2023-03-23T09:47:27;11.80;99.90
52725;DHT22;38621;52.830;6.914;2023-03-23T09:50:00;11.90;99.90
52725;DHT22;38621;52.830;6.914;2023-03-23T09:52:55;12.00;99.90
52725;DHT22;38621;52.830;6.914;2023-03-23T09:55:22;12.30;99.90
52725;DHT22;38621;52.830;6.914;2023-03-23T10:00:30;12.40;99.90
52725;DHT22;38621;52.830;6.914;2023-03-23T10:05:52;12.70;99.90
52725;DHT22;38621;52.830;6.914;2023-03-23T10:08:24;12.90;99.90
52725;DHT22;38621;52.830;6.914;2023-03-23T10:14:00;12.70;99.90
52725;DHT22;38621;52.830;6.914;2023-03-23T10:16:31;12.90;99.90
52725;DHT22;38621;52.830;6.914;2023-03-23T10:21:37;13.00;99.90
52725;DHT22;38621;52.830;6.914;2023-03-23T10:24:09;13.00;99.90
52725;DHT22;38621;52.830;6.914;2023-03-23T10:29:28;13.40;99.90
52725;DHT22;38621;52.830;6.914;2023-03-23T10:32:11;13.30;99.90
52725;DHT22;38621;52.830;6.914;2023-03-23T10:37:23;13.00;99.90
52725;DHT22;38621;52.830;6.914;2023-03-23T10:39:53;13.30;99.90
52725;DHT22;38621;52.830;6.914;2023-03-23T10:42:30;13.70;99.90
52725;DHT22;38621;52.830;6.914;2023-03-23T10:45:19;13.70;99.90
52725;DHT22;38621;52.830;6.914;2023-03-23T10:47:51;13.80;99.90
52725;DHT22;38621;52.830;6.914;2023-03-23T10:50:23;13.90;99.90
52725;DHT22;38621;52.830;6.914;2023-03-23T10:52:52;14.00;99.90
52725;DHT22;38621;52.830;6.914;2023-03-23T10:55:23;14.00;99.90
52725;DHT22;38621;52.830;6.914;2023-03-23T10:58:04;14.00;99.90
52725;DHT22;38621;52.830;6.914;2023-03-23T11:00:31;13.60;99.90
52725;DHT22;38621;52.830;6.914;2023-03-23T11:03:05;13.50;99.90
52725;DHT22;38621;52.830;6.914;2023-03-23T11:05:35;13.60;99.90
52725;DHT22;38621;52.830;6.914;2023-03-23T11:08:03;13.80;99.90
52725;DHT22;38621;52.830;6.914;2023-03-23T11:10:38;14.10;99.90
52725;DHT22;38621;52.830;6.914;2023-03-23T11:13:04;14.40;99.90
52725;DHT22;38621;52.830;6.914;2023-03-23T11:15:40;14.50;99.90
52725;DHT22;38621;52.830;6.914;2023-03-23T11:18:11;14.40;99.90
52725;DHT22;38621;52.830;6.914;2023-03-23T11:20:41;14.30;99.90
52725;DHT22;38621;52.830;6.914;2023-03-23T11:23:33;14.20;99.90
52725;DHT22;38621;52.830;6.914;2023-03-23T11:26:20;14.30;99.90
52725;DHT22;38621;52.830;6.914;2023-03-23T11:31:33;13.90;99.90
52725;DHT22;38621;52.830;6.914;2023-03-23T11:34:02;13.80;99.90
52725;DHT22;38621;52.830;6.914;2023-03-23T11:36:38;13.80;99.90
52725;DHT22;38621;52.830;6.914;2023-03-23T11:39:29;14.10;99.90
52725;DHT22;38621;52.830;6.914;2023-03-23T11:41:59;14.40;99.90
52725;DHT22;38621;52.830;6.914;2023-03-23T11:44:33;14.30;99.90
52725;DHT22;38621;52.830;6.914;2023-03-23T11:47:30;14.00;99.90
52725;DHT22;38621;52.830;6.914;2023-03-23T11:52:47;13.50;99.90
52725;DHT22;38621;52.830;6.914;2023-03-23T11:55:17;13.70;99.90
52725;DHT22;38621;52.830;6.914;2023-03-23T11:57:44;14.00;99.90
52725;DHT22;38621;52.830;6.914;2023-03-23T12:00:18;14.10;99.90
52725;DHT22;38621;52.830;6.914;2023-03-23T12:05:52;14.80;99.90
52725;DHT22;38621;52.830;6.914;2023-03-23T12:19:10;15.20;99.90
52725;DHT22;38621;52.830;6.914;2023-03-23T12:30:18;15.20;99.90
52725;DHT22;38621;52.830;6.914;2023-03-23T12:35:41;15.30;99.90
52725;DHT22;38621;52.830;6.914;2023-03-23T12:48:46;14.90;99.90
52725;DHT22;38621;52.830;6.914;2023-03-23T12:57:00;14.60;99.90
52725;DHT22;38621;52.830;6.914;2023-03-23T12:59:41;14.50;99.90
52725;DHT22;38621;52.830;6.914;2023-03-23T13:02:24;14.50;99.90
52725;DHT22;38621;52.830;6.914;2023-03-23T13:07:32;14.30;99.90
52725;DHT22;38621;52.830;6.914;2023-03-23T13:10:07;14.50;99.90
52725;DHT22;38621;52.830;6.914;2023-03-23T13:12:35;14.50;99.90
52725;DHT22;38621;52.830;6.914;2023-03-23T13:18:17;15.10;99.90
52725;DHT22;38621;52.830;6.914;2023-03-23T13:23:23;15.80;99.90
52725;DHT22;38621;52.830;6.914;2023-03-23T13:25:54;16.10;99.90
52725;DHT22;38621;52.830;6.914;2023-03-23T13:28:51;15.90;99.90
52725;DHT22;38621;52.830;6.914;2023-03-23T13:31:31;16.00;99.90
52725;DHT22;38621;52.830;6.914;2023-03-23T13:36:39;16.10;99.90
52725;DHT22;38621;52.830;6.914;2023-03-23T13:39:18;15.70;99.90
52725;DHT22;38621;52.830;6.914;2023-03-23T13:42:05;15.70;99.90
52725;DHT22;38621;52.830;6.914;2023-03-23T13:50:00;14.90;99.90
52725;DHT22;38621;52.830;6.914;2023-03-23T13:58:10;14.90;99.90
52725;DHT22;38621;52.830;6.914;2023-03-23T14:00:47;14.90;99.90
52725;DHT22;38621;52.830;6.914;2023-03-23T14:03:25;15.00;99.90
52725;DHT22;38621;52.830;6.914;2023-03-23T14:10:59;15.30;99.90
52725;DHT22;38621;52.830;6.914;2023-03-23T14:13:35;15.10;99.90
52725;DHT22;38621;52.830;6.914;2023-03-23T14:16:04;14.80;99.90
52725;DHT22;38621;52.830;6.914;2023-03-23T14:18:38;14.40;99.90
52725;DHT22;38621;52.830;6.914;2023-03-23T14:21:05;14.20;99.90
52725;DHT22;38621;52.830;6.914;2023-03-23T14:23:34;14.10;99.90
52725;DHT22;38621;52.830;6.914;2023-03-23T14:26:04;14.10;99.90
52725;DHT22;38621;52.830;6.914;2023-03-23T14:28:37;14.00;99.90
52725;DHT22;38621;52.830;6.914;2023-03-23T14:31:04;13.90;99.90
52725;DHT22;38621;52.830;6.914;2023-03-23T14:33:30;13.70;99.90
52725;DHT22;38621;52.830;6.914;2023-03-23T14:35:58;13.70;99.90
52725;DHT22;38621;52.830;6.914;2023-03-23T14:38:25;13.60;99.90
52725;DHT22;38621;52.830;6.914;2023-03-23T14:41:03;13.40;99.90
52725;DHT22;38621;52.830;6.914;2023-03-23T14:43:29;13.30;99.90
52725;DHT22;38621;52.830;6.914;2023-03-23T14:45:59;13.20;99.90
52725;DHT22;38621;52.830;6.914;2023-03-23T14:48:25;13.20;99.90
52725;DHT22;38621;52.830;6.914;2023-03-23T14:50:56;13.20;99.90
52725;DHT22;38621;52.830;6.914;2023-03-23T14:53:36;13.10;99.90
52725;DHT22;38621;52.830;6.914;2023-03-23T14:56:11;13.00;99.90
52725;DHT22;38621;52.830;6.914;2023-03-23T14:58:38;13.00;99.90
52725;DHT22;38621;52.830;6.914;2023-03-23T15:01:10;13.00;99.90
52725;DHT22;38621;52.830;6.914;2023-03-23T15:03:43;13.10;99.90
52725;DHT22;38621;52.830;6.914;2023-03-23T15:06:16;13.30;99.90
52725;DHT22;38621;52.830;6.914;2023-03-23T15:08:43;13.70;99.90
52725;DHT22;38621;52.830;6.914;2023-03-23T15:11:24;14.00;99.90
52725;DHT22;38621;52.830;6.914;2023-03-23T15:13:53;14.00;99.90
52725;DHT22;38621;52.830;6.914;2023-03-23T15:16:28;13.90;99.90
52725;DHT22;38621;52.830;6.914;2023-03-23T15:19:04;13.90;99.90
52725;DHT22;38621;52.830;6.914;2023-03-23T15:21:36;13.90;99.90
52725;DHT22;38621;52.830;6.914;2023-03-23T15:24:36;13.90;99.90
52725;DHT22;38621;52.830;6.914;2023-03-23T15:29:50;14.20;99.90
52725;DHT22;38621;52.830;6.914;2023-03-23T15:32:30;14.10;99.90
52725;DHT22;38621;52.830;6.914;2023-03-23T15:34:57;14.00;99.90
52725;DHT22;38621;52.830;6.914;2023-03-23T15:37:34;14.10;99.90
52725;DHT22;38621;52.830;6.914;2023-03-23T15:40:02;14.30;99.90
52725;DHT22;38621;52.830;6.914;2023-03-23T15:42:33;14.20;99.90
52725;DHT22;38621;52.830;6.914;2023-03-23T15:50:16;14.30;99.90
52725;DHT22;38621;52.830;6.914;2023-03-23T15:52:43;14.40;99.90
52725;DHT22;38621;52.830;6.914;2023-03-23T15:55:36;14.20;99.90
52725;DHT22;38621;52.830;6.914;2023-03-23T15:58:12;14.00;99.90
52725;DHT22;38621;52.830;6.914;2023-03-23T16:00:39;13.90;99.90
52725;DHT22;38621;52.830;6.914;2023-03-23T16:03:12;13.90;99.90
52725;DHT22;38621;52.830;6.914;2023-03-23T16:05:41;14.10;99.90
52725;DHT22;38621;52.830;6.914;2023-03-23T16:08:10;14.30;99.90
52725;DHT22;38621;52.830;6.914;2023-03-23T16:10:36;14.40;99.90
52725;DHT22;38621;52.830;6.914;2023-03-23T16:13:02;14.40;99.90
52725;DHT22;38621;52.830;6.914;2023-03-23T16:15:30;14.40;99.90
52725;DHT22;38621;52.830;6.914;2023-03-23T16:17:56;14.40;99.90
52725;DHT22;38621;52.830;6.914;2023-03-23T16:20:22;14.50;99.90
52725;DHT22;38621;52.830;6.914;2023-03-23T16:22:50;14.40;99.90
52725;DHT22;38621;52.830;6.914;2023-03-23T16:25:17;14.20;99.90
52725;DHT22;38621;52.830;6.914;2023-03-23T16:27:44;13.90;99.90
52725;DHT22;38621;52.830;6.914;2023-03-23T16:30:19;13.70;99.90
52725;DHT22;38621;52.830;6.914;2023-03-23T16:32:45;13.50;99.90
52725;DHT22;38621;52.830;6.914;2023-03-23T16:35:12;13.20;99.90
52725;DHT22;38621;52.830;6.914;2023-03-23T16:37:38;13.00;99.90
52725;DHT22;38621;52.830;6.914;2023-03-23T16:40:05;12.80;99.90
52725;DHT22;38621;52.830;6.914;2023-03-23T16:42:31;12.70;99.90
52725;DHT22;38621;52.830;6.914;2023-03-23T16:44:57;12.70;99.90
52725;DHT22;38621;52.830;6.914;2023-03-23T16:47:23;12.70;99.90
52725;DHT22;38621;52.830;6.914;2023-03-23T16:49:50;12.90;99.90
52725;DHT22;38621;52.830;6.914;2023-03-23T16:52:16;13.10;99.90
52725;DHT22;38621;52.830;6.914;2023-03-23T16:54:42;13.10;99.90
52725;DHT22;38621;52.830;6.914;2023-03-23T16:57:09;12.80;99.90
52725;DHT22;38621;52.830;6.914;2023-03-23T16:59:35;12.60;99.90
52725;DHT22;38621;52.830;6.914;2023-03-23T17:02:01;12.40;99.90
52725;DHT22;38621;52.830;6.914;2023-03-23T17:04:29;12.20;99.90
52725;DHT22;38621;52.830;6.914;2023-03-23T17:06:55;12.00;99.90
52725;DHT22;38621;52.830;6.914;2023-03-23T17:09:24;11.90;99.90
52725;DHT22;38621;52.830;6.914;2023-03-23T17:11:51;11.80;99.90
52725;DHT22;38621;52.830;6.914;2023-03-23T17:14:17;11.70;99.90
52725;DHT22;38621;52.830;6.914;2023-03-23T17:16:42;11.60;99.90
52725;DHT22;38621;52.830;6.914;2023-03-23T17:19:08;11.60;99.90
52725;DHT22;38621;52.830;6.914;2023-03-23T17:21:34;11.60;99.90
52725;DHT22;38621;52.830;6.914;2023-03-23T17:24:01;11.60;99.90
52725;DHT22;38621;52.830;6.914;2023-03-23T17:26:26;11.60;99.90
52725;DHT22;38621;52.830;6.914;2023-03-23T17:28:52;11.60;99.90
52725;DHT22;38621;52.830;6.914;2023-03-23T17:31:18;11.60;99.90
52725;DHT22;38621;52.830;6.914;2023-03-23T17:33:43;11.60;99.90
52725;DHT22;38621;52.830;6.914;2023-03-23T17:36:09;11.70;99.90
52725;DHT22;38621;52.830;6.914;2023-03-23T17:38:35;11.70;99.90
52725;DHT22;38621;52.830;6.914;2023-03-23T17:41:01;11.80;99.90
52725;DHT22;38621;52.830;6.914;2023-03-23T17:43:29;11.80;99.90
52725;DHT22;38621;52.830;6.914;2023-03-23T17:45:55;11.90;99.90
52725;DHT22;38621;52.830;6.914;2023-03-23T17:48:21;11.90;99.90
52725;DHT22;38621;52.830;6.914;2023-03-23T17:50:48;11.80;99.90
52725;DHT22;38621;52.830;6.914;2023-03-23T17:53:14;11.90;99.90